KTPH/TPH METAR and TAF weather

Enter ICAO airport designator
Station Type Date Time Source
KTPH METAR 2018/12/13 21:56 UTC NOAA

KTPH 132156Z AUTO 00000KT 10SM CLR 07/M13 A3035 RMK AO2 SLP286 T00721128


Station Type Date Time Source
KTPH Decoded METAR 2018/12/13 21:56 UTC NOAA

TONOPAH AIRPORT, NV, United States (KTPH) 38-02N 117-05W 1652M
Dec 13, 2018 - 04:56 PM EST / 2018.12.13 2156 UTC
Wind: Calm:0
Visibility: 10 mile(s):0
Sky conditions: clear
Temperature: 45.0 F (7.2 C)
Dew Point: 9.0 F (-12.8 C)
Relative Humidity: 22%
Pressure (altimeter): 30.35 in. Hg (1027 hPa)
ob: KTPH 132156Z AUTO 00000KT 10SM CLR 07/M13 A3035 RMK AO2 SLP286 T00721128
cycle: 22

Station Type Date Time Source
KTPH TAF 2018/12/13 18:42 UTC NOAA

TAF KTPH 131739Z 1318/1418 VRB05KT P6SM SKC
FM140300 01008KT P6SM FEW150 BKN200
FM141700 17008KT P6SM BKN100


Example: see airport list